createdAt,value
2022-10-19T00:00:02.779Z,101752.91
2022-10-19T00:02:29.662Z,101753.97
2022-10-19T00:04:56.571Z,101737.41
2022-10-19T00:07:23.485Z,101738.25
2022-10-19T00:09:50.927Z,101742.69
2022-10-19T00:12:17.807Z,101755.09
2022-10-19T00:14:45.474Z,101736.91
2022-10-19T00:17:12.211Z,101739.78
2022-10-19T00:19:39.106Z,101739.06
2022-10-19T00:22:07.147Z,101725.06
2022-10-19T00:24:36.116Z,101728.63
2022-10-19T00:27:03.017Z,101754.03
2022-10-19T00:29:29.807Z,101744.16
2022-10-19T00:31:56.701Z,101737.91
2022-10-19T00:34:24.003Z,101732.78
2022-10-19T00:36:50.789Z,101733.03
2022-10-19T00:39:18.817Z,101733.63
2022-10-19T00:41:47.802Z,101740.75
2022-10-19T00:44:15.979Z,101730.31
2022-10-19T00:46:45.193Z,101741.06
2022-10-19T00:49:20.870Z,101739.53
2022-10-19T00:51:51.402Z,101747.75
2022-10-19T00:54:18.968Z,101740.81
2022-10-19T00:56:49.331Z,101748.84
2022-10-19T00:59:20.949Z,101746.31
2022-10-19T01:01:49.269Z,101733.22
2022-10-19T01:04:16.174Z,101734.06
2022-10-19T01:06:43.270Z,101726.97
2022-10-19T01:09:10.113Z,101728.63
2022-10-19T01:11:57.287Z,101714.47
2022-10-19T01:14:47.979Z,101702.91
2022-10-19T01:17:24.145Z,101694.94
2022-10-19T01:20:06.033Z,101702.75
2022-10-19T01:22:35.691Z,101697.41
2022-10-19T01:25:33.201Z,101696.38
2022-10-19T01:28:15.305Z,101696.31
2022-10-19T01:30:46.138Z,101702.53
2022-10-19T01:33:41.410Z,101687.34
2022-10-19T01:36:23.393Z,101689.97
2022-10-19T01:39:02.898Z,101694.34
2022-10-19T01:41:45.906Z,101690.72
2022-10-19T01:44:36.814Z,101689.97
2022-10-19T01:47:08.927Z,101665.47
2022-10-19T01:49:44.728Z,101672.28
2022-10-19T01:52:15.265Z,101661.75
2022-10-19T01:54:49.383Z,101631.84
2022-10-19T01:57:24.195Z,101650.88
2022-10-19T01:59:53.453Z,101627.09
2022-10-19T02:02:21.743Z,101609.63
2022-10-19T02:04:50.526Z,101609.78
2022-10-19T02:07:21.043Z,101617.75
2022-10-19T02:09:48.151Z,101621.31
2022-10-19T02:12:16.831Z,101630.09
2022-10-19T02:14:47.619Z,101638.81
2022-10-19T02:17:19.578Z,101637.03
2022-10-19T02:19:46.380Z,101616.75
2022-10-19T02:22:14.132Z,101627.16
2022-10-19T02:24:41.188Z,101624.47
2022-10-19T02:27:09.095Z,101616.41
2022-10-19T02:29:37.739Z,101620.47
2022-10-19T02:32:05.239Z,101605.44
2022-10-19T02:34:33.261Z,101624.47
2022-10-19T02:37:00.062Z,101590.22
2022-10-19T02:39:27.255Z,101584.22
2022-10-19T02:42:25.202Z,101592.53
2022-10-19T02:45:27.504Z,101582.56
2022-10-19T02:47:59.218Z,101574.59
2022-10-19T02:50:26.303Z,101577.81
2022-10-19T02:52:53.153Z,101597.84
2022-10-19T02:55:20.060Z,101582.81
2022-10-19T02:57:46.933Z,101576.59
2022-10-19T03:00:13.948Z,101549.41
2022-10-19T03:02:40.877Z,101532.06
2022-10-19T03:05:08.703Z,101534.16
2022-10-19T03:07:36.353Z,101531.78
2022-10-19T03:10:04.078Z,101535.41
2022-10-19T03:12:30.905Z,101531.78
2022-10-19T03:14:57.757Z,101543.63
2022-10-19T03:17:24.640Z,101549.66
2022-10-19T03:19:51.549Z,101531.81
2022-10-19T03:22:18.482Z,101549.22
2022-10-19T03:24:45.427Z,101537.47
2022-10-19T03:27:12.382Z,101532.13
2022-10-19T03:29:39.316Z,101538.97
2022-10-19T03:32:06.272Z,101540.50
2022-10-19T03:34:33.256Z,101538.63
2022-10-19T03:37:00.101Z,101528.75
2022-10-19T03:39:27.046Z,101540.13
2022-10-19T03:41:53.996Z,101544.38
2022-10-19T03:44:20.834Z,101526.78
2022-10-19T03:46:47.685Z,101526.78
2022-10-19T03:49:14.735Z,101538.34
2022-10-19T03:51:41.972Z,101543.72
2022-10-19T03:54:14.872Z,101542.00
2022-10-19T03:56:42.994Z,101535.25
2022-10-19T03:59:14.585Z,101525.88
2022-10-19T04:01:44.918Z,101503.38
2022-10-19T04:04:17.030Z,101508.56
2022-10-19T04:06:45.972Z,101499.06
2022-10-19T04:09:15.274Z,101509.78
2022-10-19T04:11:42.431Z,101495.00
2022-10-19T04:14:19.234Z,101483.72
2022-10-19T04:16:54.086Z,101486.53
2022-10-19T04:19:20.916Z,101492.84
2022-10-19T04:21:49.633Z,101488.56
2022-10-19T04:24:18.962Z,101492.84
2022-10-19T04:26:48.958Z,101494.63
2022-10-19T04:29:17.159Z,101494.72
2022-10-19T04:31:44.198Z,101517.28
2022-10-19T04:34:11.454Z,101521.44
2022-10-19T04:36:38.855Z,101496.72
2022-10-19T04:39:06.318Z,101492.28
2022-10-19T04:41:33.505Z,101508.84
2022-10-19T04:44:02.512Z,101489.28
2022-10-19T04:46:30.570Z,101504.13
2022-10-19T04:48:58.131Z,101519.94
2022-10-19T04:51:25.626Z,101532.38
2022-10-19T04:53:54.427Z,101525.44
2022-10-19T04:56:26.352Z,101532.38
2022-10-19T04:58:57.704Z,101517.53
2022-10-19T05:01:25.388Z,101508.91
2022-10-19T05:06:29.295Z,101480.22
2022-10-19T05:08:56.276Z,101475.06
2022-10-19T05:11:23.270Z,101475.31
2022-10-19T05:13:50.414Z,101476.06
2022-10-19T05:16:20.112Z,101483.22
2022-10-19T05:18:58.894Z,101491.13
2022-10-19T05:21:27.898Z,101477.13
2022-10-19T05:23:56.164Z,101474.75
2022-10-19T05:26:25.371Z,101489.44
2022-10-19T05:28:57.545Z,101465.75
2022-10-19T05:31:27.243Z,101443.03
2022-10-19T05:33:56.263Z,101435.97
2022-10-19T05:36:26.388Z,101457.06
2022-10-19T05:38:55.404Z,101464.03
2022-10-19T05:41:23.572Z,101463.09
2022-10-19T05:43:56.249Z,101457.06
2022-10-19T05:46:23.557Z,101445.59
2022-10-19T05:48:50.394Z,101449.16
2022-10-19T05:51:21.238Z,101432.50
2022-10-19T05:53:48.130Z,101461.47
2022-10-19T05:56:20.656Z,101475.50
2022-10-19T05:58:48.258Z,101469.47
2022-10-19T06:01:16.294Z,101469.38
2022-10-19T06:03:43.130Z,101457.16
2022-10-19T06:06:10.633Z,101451.03
2022-10-19T06:08:38.858Z,101435.97
2022-10-19T06:11:09.950Z,101427.16
2022-10-19T06:13:38.175Z,101420.09
2022-10-19T06:16:06.404Z,101419.06
2022-10-19T06:18:33.917Z,101425.09
2022-10-19T06:21:06.238Z,101434.69
2022-10-19T06:23:34.294Z,101430.25
2022-10-19T06:26:07.760Z,101435.34
2022-10-19T06:28:35.411Z,101429.03
2022-10-19T06:31:04.815Z,101401.84
2022-10-19T06:33:34.367Z,101409.66
2022-10-19T06:36:14.063Z,101396.41
2022-10-19T06:38:41.883Z,101398.09
2022-10-19T06:41:09.446Z,101406.94
2022-10-19T06:43:36.444Z,101430.75
2022-10-19T06:46:08.005Z,101414.94
2022-10-19T06:48:35.125Z,101400.25
2022-10-19T06:51:06.314Z,101366.19
2022-10-19T06:53:34.811Z,101361.13
2022-10-19T06:56:03.610Z,101349.25
2022-10-19T06:58:31.312Z,101315.94
2022-10-19T07:00:59.528Z,101325.00
2022-10-19T07:03:28.028Z,101321.56
2022-10-19T07:06:00.230Z,101322.53
2022-10-19T07:08:29.306Z,101318.00
2022-10-19T07:10:59.042Z,101315.38
2022-10-19T07:13:28.196Z,101304.84
2022-10-19T07:16:07.062Z,101276.63
2022-10-19T07:18:35.822Z,101277.59
2022-10-19T07:21:05.707Z,101274.53
2022-10-19T07:23:34.287Z,101269.09
2022-10-19T07:26:13.431Z,101267.94
2022-10-19T07:28:41.496Z,101277.38
2022-10-19T07:31:11.173Z,101276.63
2022-10-19T07:33:38.320Z,101284.31
2022-10-19T07:36:08.274Z,101280.75
2022-10-19T07:38:35.843Z,101286.75
2022-10-19T07:41:05.960Z,101286.03
2022-10-19T07:43:33.360Z,101293.72
2022-10-19T07:46:02.504Z,101314.81
2022-10-19T07:48:30.028Z,101326.19
2022-10-19T07:50:57.278Z,101348.88
2022-10-19T07:53:24.714Z,101352.19
2022-10-19T07:55:51.608Z,101367.69
2022-10-19T07:58:18.423Z,101372.84
2022-10-19T08:00:45.456Z,101372.75
2022-10-19T08:03:57.109Z,101370.78
2022-10-19T08:06:05.571Z,101366.47
2022-10-19T08:08:33.009Z,101359.97
2022-10-19T08:11:14.508Z,101363.34
2022-10-19T08:13:41.200Z,101370.88
2022-10-19T08:16:25.350Z,101375.16
2022-10-19T08:18:55.926Z,101384.06
2022-10-19T08:21:22.828Z,101377.16
2022-10-19T08:23:50.180Z,101368.34
2022-10-19T08:26:16.958Z,101371.66
2022-10-19T08:28:43.864Z,101381.66
2022-10-19T08:31:22.690Z,101384.81
2022-10-19T08:33:50.961Z,101403.25
2022-10-19T08:36:19.848Z,101417.59
2022-10-19T08:38:48.637Z,101402.59
2022-10-19T08:41:35.743Z,101399.00
2022-10-19T08:44:24.822Z,101389.47
2022-10-19T08:47:12.421Z,101393.59
2022-10-19T08:49:40.427Z,101391.03
2022-10-19T08:52:22.824Z,101379.22
2022-10-19T08:54:56.030Z,101373.09
2022-10-19T08:57:58.137Z,101379.31
2022-10-19T09:00:47.564Z,101389.88
2022-10-19T09:03:31.908Z,101387.78
2022-10-19T09:06:23.680Z,101391.34
2022-10-19T09:08:53.583Z,101394.75
2022-10-19T09:11:26.252Z,101398.03
2022-10-19T09:14:05.459Z,101391.69
2022-10-19T09:16:35.082Z,101384.81
2022-10-19T09:19:04.108Z,101379.53
2022-10-19T09:22:06.183Z,101377.75
2022-10-19T09:24:43.680Z,101370.34
2022-10-19T09:27:24.694Z,101374.69
2022-10-19T09:30:02.646Z,101391.38
2022-10-19T09:32:36.420Z,101381.66
2022-10-19T09:35:38.011Z,101372.34
2022-10-19T09:38:07.054Z,101389.88
2022-10-19T09:40:35.266Z,101397.25
2022-10-19T09:43:19.743Z,101396.63
2022-10-19T09:45:59.639Z,101395.16
2022-10-19T09:48:38.590Z,101368.84
2022-10-19T09:51:13.249Z,101360.09
2022-10-19T09:53:52.174Z,101360.94
2022-10-19T09:56:24.581Z,101357.97
2022-10-19T09:58:53.783Z,101339.69
2022-10-19T10:01:41.590Z,101339.94
2022-10-19T10:04:10.163Z,101341.19
2022-10-19T10:06:39.960Z,101330.34
2022-10-19T10:09:07.349Z,101325.88
2022-10-19T10:11:38.270Z,101331.06
2022-10-19T10:14:23.412Z,101333.72
2022-10-19T10:17:03.320Z,101343.19
2022-10-19T10:19:32.844Z,101352.31
2022-10-19T10:22:00.602Z,101343.84
2022-10-19T10:24:31.947Z,101337.28
2022-10-19T10:27:03.404Z,101342.97
2022-10-19T10:29:39.565Z,101348.56
2022-10-19T10:32:16.645Z,101346.97
2022-10-19T10:35:27.920Z,101347.63
2022-10-19T10:38:09.456Z,101347.72
2022-10-19T10:40:36.611Z,101351.38
2022-10-19T10:43:29.474Z,101349.91
2022-10-19T10:46:04.402Z,101346.31
2022-10-19T10:48:58.787Z,101349.91
2022-10-19T10:51:32.484Z,101330.47
2022-10-19T10:54:20.637Z,101336.81
2022-10-19T10:57:12.993Z,101320.03
2022-10-19T10:59:45.658Z,101314.97
2022-10-19T11:02:36.104Z,101328.91
2022-10-19T11:05:14.409Z,101320.88
2022-10-19T11:07:45.712Z,101315.69
2022-10-19T11:10:28.514Z,101312.88
2022-10-19T11:13:16.896Z,101310.97
2022-10-19T11:16:16.782Z,101297.75
2022-10-19T11:18:51.642Z,101295.75
2022-10-19T11:21:29.443Z,101289.75
2022-10-19T11:24:18.859Z,101287.31
2022-10-19T11:27:07.022Z,101284.47
2022-10-19T11:30:04.031Z,101279.38
2022-10-19T11:33:04.904Z,101270.28
2022-10-19T11:35:53.313Z,101259.75
2022-10-19T11:38:41.205Z,101255.97
2022-10-19T11:41:27.150Z,101247.31
2022-10-19T11:44:18.833Z,101233.66
2022-10-19T11:46:51.546Z,101231.25
2022-10-19T11:49:46.094Z,101228.91
2022-10-19T11:52:21.584Z,101217.69
2022-10-19T11:55:14.332Z,101209.47
2022-10-19T11:57:53.314Z,101204.38
2022-10-19T12:00:38.275Z,101194.56
2022-10-19T12:03:24.340Z,101178.72
2022-10-19T12:06:04.582Z,101166.00
2022-10-19T12:08:44.880Z,101171.34
2022-10-19T12:11:30.229Z,101159.84
2022-10-19T12:14:34.900Z,101145.41
2022-10-19T12:17:16.025Z,101136.75
2022-10-19T12:19:48.140Z,101113.50
2022-10-19T12:22:25.331Z,101109.31
2022-10-19T12:24:55.750Z,101101.38
2022-10-19T12:27:41.125Z,101100.41
2022-10-19T12:30:22.852Z,101099.47
2022-10-19T12:32:58.937Z,101093.50
2022-10-19T12:35:58.166Z,101076.00
2022-10-19T12:38:33.990Z,101070.81
2022-10-19T12:41:20.927Z,101045.91
2022-10-19T12:44:08.976Z,101056.47
2022-10-19T12:46:43.336Z,101055.50
2022-10-19T12:49:29.202Z,101054.06
2022-10-19T12:51:57.885Z,101068.22
2022-10-19T12:54:27.288Z,101041.44
2022-10-19T12:56:56.590Z,101045.34
2022-10-19T12:59:32.788Z,101057.31
2022-10-19T13:02:01.412Z,101061.44
2022-10-19T13:04:31.704Z,101050.25
2022-10-19T13:06:58.552Z,101036.78
2022-10-19T13:09:42.836Z,101029.31
2022-10-19T13:12:19.783Z,101034.59
2022-10-19T13:15:01.713Z,101028.75
2022-10-19T13:17:34.769Z,101041.88
2022-10-19T13:20:14.283Z,101037.63
2022-10-19T13:22:57.160Z,101028.25
2022-10-19T13:25:35.377Z,101033.72
2022-10-19T13:28:08.102Z,101019.69
2022-10-19T13:30:46.734Z,101022.44
2022-10-19T13:33:28.716Z,101004.91
2022-10-19T13:36:04.321Z,100991.84
2022-10-19T13:38:49.546Z,100991.22
2022-10-19T13:41:27.440Z,100985.94
2022-10-19T13:44:03.451Z,100994.06
2022-10-19T13:46:30.201Z,100977.00
2022-10-19T13:49:32.775Z,100969.53
2022-10-19T13:52:11.753Z,100946.72
2022-10-19T13:54:57.628Z,100938.81
2022-10-19T13:57:43.063Z,100926.59
2022-10-19T14:00:12.105Z,100920.34
2022-10-19T14:03:09.330Z,100909.09
2022-10-19T14:06:03.288Z,100885.34
2022-10-19T14:08:29.929Z,100873.34
2022-10-19T14:11:01.614Z,100872.72
2022-10-19T14:13:29.458Z,100887.28
2022-10-19T14:15:58.355Z,100856.25
2022-10-19T14:18:31.225Z,100840.44
2022-10-19T14:21:09.926Z,100833.50
2022-10-19T14:23:42.051Z,100838.25
2022-10-19T14:26:23.436Z,100850.78
2022-10-19T14:28:55.307Z,100867.47
2022-10-19T14:31:25.198Z,100869.22
2022-10-19T14:33:54.425Z,100859.31
2022-10-19T14:36:23.719Z,100876.50
2022-10-19T14:38:54.556Z,100860.44
2022-10-19T14:41:27.322Z,100862.97
2022-10-19T14:43:57.407Z,100854.94
2022-10-19T14:46:32.464Z,100850.63
2022-10-19T14:49:02.507Z,100858.53
2022-10-19T14:51:41.189Z,100856.00
2022-10-19T14:54:15.045Z,100856.00
2022-10-19T14:56:53.749Z,100852.50
2022-10-19T14:59:31.142Z,100823.41
2022-10-19T15:02:05.369Z,100816.34
2022-10-19T15:04:37.171Z,100800.53
2022-10-19T15:07:15.223Z,100790.81
2022-10-19T15:09:49.747Z,100788.78
2022-10-19T15:12:20.336Z,100763.47
2022-10-19T15:14:48.260Z,100753.06
2022-10-19T15:17:44.017Z,100731.19
2022-10-19T15:20:43.927Z,100701.59
2022-10-19T15:23:48.511Z,100705.81
2022-10-19T15:26:18.228Z,100727.25
2022-10-19T15:28:45.212Z,100732.41
2022-10-19T15:31:19.585Z,100762.59
2022-10-19T15:33:52.031Z,100755.41
2022-10-19T15:36:20.787Z,100742.00
2022-10-19T15:38:50.206Z,100747.28
2022-10-19T15:41:26.219Z,100739.22
2022-10-19T15:43:54.736Z,100743.78
2022-10-19T15:46:31.910Z,100734.81
2022-10-19T15:49:04.724Z,100716.56
2022-10-19T15:51:36.821Z,100713.94
2022-10-19T15:54:07.837Z,100701.69
2022-10-19T15:56:40.443Z,100694.75
2022-10-19T15:59:13.656Z,100693.78
2022-10-19T16:01:40.851Z,100683.25
2022-10-19T16:04:07.693Z,100679.66
2022-10-19T16:06:37.037Z,100679.88
2022-10-19T16:09:04.530Z,100695.38
2022-10-19T16:11:33.840Z,100676.91
2022-10-19T16:14:00.782Z,100689.13
2022-10-19T16:16:31.250Z,100682.06
2022-10-19T16:18:59.175Z,100676.09
2022-10-19T16:21:31.037Z,100670.81
2022-10-19T16:23:58.451Z,100670.31
2022-10-19T16:26:26.436Z,100665.69
2022-10-19T16:28:54.990Z,100661.66
2022-10-19T16:31:22.617Z,100645.78
2022-10-19T16:33:49.765Z,100649.63
2022-10-19T16:36:20.379Z,100630.06
2022-10-19T16:38:48.262Z,100622.25
2022-10-19T16:41:16.082Z,100618.06
2022-10-19T16:43:43.323Z,100611.53
2022-10-19T16:46:10.627Z,100607.75
2022-10-19T16:48:38.386Z,100608.69
2022-10-19T16:51:07.942Z,100601.66
2022-10-19T16:53:36.280Z,100617.47
2022-10-19T16:56:08.188Z,100612.06
2022-10-19T16:58:36.666Z,100612.91
2022-10-19T17:01:08.365Z,100610.16
2022-10-19T17:03:35.479Z,100605.00
2022-10-19T17:06:04.634Z,100600.56
2022-10-19T17:09:14.317Z,100592.66
2022-10-19T17:11:25.184Z,100584.78
2022-10-19T17:13:54.075Z,100575.94
2022-10-19T17:16:22.082Z,100580.94
2022-10-19T17:18:49.402Z,100587.91
2022-10-19T17:21:19.877Z,100579.88
2022-10-19T17:23:47.226Z,100586.00
2022-10-19T17:26:14.340Z,100580.72
2022-10-19T17:28:41.271Z,100586.28
2022-10-19T17:31:11.432Z,100593.94
2022-10-19T17:33:39.308Z,100587.38
2022-10-19T17:36:07.352Z,100589.69
2022-10-19T17:38:34.481Z,100588.59
2022-10-19T17:41:03.481Z,100599.13
2022-10-19T17:43:30.512Z,100599.97
2022-10-19T17:46:01.917Z,100596.50
2022-10-19T17:48:29.284Z,100593.03
2022-10-19T17:51:01.599Z,100589.06
2022-10-19T17:53:30.585Z,100588.69
2022-10-19T17:56:01.127Z,100596.09
2022-10-19T17:58:28.476Z,100589.25
2022-10-19T18:00:56.436Z,100577.38
2022-10-19T18:03:24.867Z,100582.63
2022-10-19T18:06:09.869Z,100587.91
2022-10-19T18:08:43.425Z,100582.03
2022-10-19T18:11:19.969Z,100576.75
2022-10-19T18:13:47.874Z,100561.19
2022-10-19T18:16:23.635Z,100552.44
2022-10-19T18:18:53.339Z,100529.91
2022-10-19T18:21:23.496Z,100543.81
2022-10-19T18:23:50.712Z,100550.13
2022-10-19T18:26:22.322Z,100515.53
2022-10-19T18:28:50.952Z,100517.47
2022-10-19T18:31:23.676Z,100517.59
2022-10-19T18:33:57.113Z,100519.25
2022-10-19T18:36:24.524Z,100509.91
2022-10-19T18:38:58.091Z,100496.41
2022-10-19T18:41:26.106Z,100496.31
2022-10-19T18:43:55.539Z,100478.69
2022-10-19T18:46:24.047Z,100467.44
2022-10-19T18:48:51.647Z,100469.59
2022-10-19T18:51:20.074Z,100477.50
2022-10-19T18:53:47.891Z,100468.53
2022-10-19T18:56:18.203Z,100442.09
2022-10-19T18:58:45.874Z,100418.22
2022-10-19T19:01:24.305Z,100411.91
2022-10-19T19:03:53.429Z,100410.09
2022-10-19T19:06:23.962Z,100421.13
2022-10-19T19:08:51.373Z,100438.50
2022-10-19T19:11:26.491Z,100425.06
2022-10-19T19:14:02.145Z,100418.88
2022-10-19T19:16:32.597Z,100399.00
2022-10-19T19:18:59.668Z,100413.13
2022-10-19T19:21:29.496Z,100414.66
2022-10-19T19:24:00.183Z,100408.47
2022-10-19T19:26:30.458Z,100421.63
2022-10-19T19:28:57.801Z,100417.06
2022-10-19T19:31:25.362Z,100404.72
2022-10-19T19:33:52.620Z,100410.72
2022-10-19T19:36:19.947Z,100421.38
2022-10-19T19:38:49.116Z,100435.41
2022-10-19T19:41:16.744Z,100416.81
2022-10-19T19:43:44.237Z,100408.06
2022-10-19T19:46:14.570Z,100406.03
2022-10-19T19:48:43.153Z,100410.59
2022-10-19T19:51:13.874Z,100412.63
2022-10-19T19:53:41.173Z,100460.03
2022-10-19T19:56:09.919Z,100479.19
2022-10-19T19:58:37.638Z,100504.56
2022-10-19T20:01:19.656Z,100464.09
2022-10-19T20:03:47.679Z,100468.53
2022-10-19T20:06:17.880Z,100465.06
2022-10-19T20:08:46.997Z,100442.31
2022-10-19T20:11:16.277Z,100431.78
2022-10-19T20:13:45.402Z,100413.47
2022-10-19T20:16:22.799Z,100403.88
2022-10-19T20:18:59.783Z,100402.09
2022-10-19T20:21:28.405Z,100384.72
2022-10-19T20:23:55.719Z,100364.47
2022-10-19T20:26:24.353Z,100361.84
2022-10-19T20:28:51.919Z,100327.50
2022-10-19T20:31:19.800Z,100289.78
2022-10-19T20:33:48.067Z,100303.91
2022-10-19T20:36:18.481Z,100279.38
2022-10-19T20:38:48.715Z,100280.56
2022-10-19T20:41:15.963Z,100287.50
2022-10-19T20:43:43.297Z,100324.00
2022-10-19T20:46:16.249Z,100341.50
2022-10-19T20:48:43.639Z,100349.63
2022-10-19T20:51:14.247Z,100356.81
2022-10-19T20:53:41.740Z,100357.63
2022-10-19T20:56:10.894Z,100348.91
2022-10-19T20:58:43.581Z,100359.22
2022-10-19T21:01:16.872Z,100351.19
2022-10-19T21:03:53.381Z,100347.59
2022-10-19T21:06:21.607Z,100346.53
2022-10-19T21:08:48.842Z,100349.16
2022-10-19T21:11:18.631Z,100356.34
2022-10-19T21:13:46.525Z,100355.97
2022-10-19T21:16:18.660Z,100344.38
2022-10-19T21:18:48.147Z,100345.22
2022-10-19T21:21:22.225Z,100349.53
2022-10-19T21:23:51.582Z,100349.41
2022-10-19T21:26:18.361Z,100343.41
2022-10-19T21:28:50.516Z,100344.75
2022-10-19T21:31:18.149Z,100335.75
2022-10-19T21:33:45.902Z,100350.63
2022-10-19T21:36:14.445Z,100355.66
2022-10-19T21:38:42.710Z,100358.13
2022-10-19T21:41:13.548Z,100371.91
2022-10-19T21:43:40.751Z,100366.63
2022-10-19T21:46:11.839Z,100371.78
2022-10-19T21:48:39.414Z,100378.03
2022-10-19T21:51:31.637Z,100358.72
2022-10-19T21:53:58.739Z,100346.78
2022-10-19T21:56:25.841Z,100351.56
2022-10-19T21:58:54.161Z,100362.44
2022-10-19T22:01:23.661Z,100359.69
2022-10-19T22:03:54.399Z,100356.72
2022-10-19T22:06:21.202Z,100369.53
